Time;durP1;ratioP1;P1;durP2;ratioP2;P2;SDS_P1;SDS_P2;PMS_P1;PMS_P2;Temp;Humidity;BMP_temperature;BMP_pressure;BME280_temperature;BME280_humidity;BME280_pressure;Samples;Min_cycle;Max_cycle;Signal;HPM_P1;HPM_P2
2022/09/07 00:07:51;;;;;;;4.33;3.93;;;;;21.70;98665.00;;;;16398068;28;20231;-48
2022/09/07 00:15:56;;;;;;;5.97;3.73;;;;;21.90;98655.00;;;;16433575;28;20194;-49
2022/09/07 00:32:08;;;;;;;4.27;3.87;;;;;22.00;98626.00;;;;16444459;28;20727;-49
2022/09/07 00:40:11;;;;;;;3.70;3.40;;;;;22.10;98623.00;;;;16459231;28;20220;-49
2022/09/07 00:48:16;;;;;;;4.97;3.47;;;;;22.10;98599.00;;;;16458951;28;20240;-49
2022/09/07 00:56:19;;;;;;;5.27;3.77;;;;;22.20;98587.00;;;;16450448;28;20736;-49
2022/09/07 01:04:24;;;;;;;5.87;3.77;;;;;21.90;98563.00;;;;16401365;28;20232;-49
2022/09/07 01:12:27;;;;;;;5.70;3.57;;;;;22.10;98578.00;;;;16397704;28;20224;-49
2022/09/07 01:20:49;;;;;;;3.90;3.50;;;;;22.70;98557.00;;;;16395019;28;20365;-49
2022/09/07 01:28:57;;;;;;;3.93;3.00;;;;;22.00;98575.00;;;;16390577;28;20253;-49
2022/09/07 01:37:05;;;;;;;5.23;3.80;;;;;22.70;98572.00;;;;16398606;28;20225;-50
2022/09/07 01:45:12;;;;;;;3.97;3.67;;;;;22.20;98594.00;;;;16395733;28;20714;-49
2022/09/07 01:53:19;;;;;;;3.33;3.03;;;;;22.00;98594.00;;;;16395311;28;20208;-49
2022/09/07 02:01:26;;;;;;;7.50;3.67;;;;;22.80;98598.00;;;;16394391;28;20232;-49
2022/09/07 02:09:31;;;;;;;5.13;4.30;;;;;22.60;98604.00;;;;16392744;28;20228;-49
2022/09/07 02:17:39;;;;;;;4.80;4.30;;;;;22.70;98613.00;;;;16394222;28;20225;-49
2022/09/07 02:25:45;;;;;;;4.60;4.20;;;;;23.50;98610.00;;;;16392260;28;20221;-49
2022/09/07 02:33:49;;;;;;;6.90;4.30;;;;;23.90;98629.00;;;;16393358;28;20198;-49
2022/09/07 02:41:51;;;;;;;4.00;3.70;;;;;22.60;98625.00;;;;16391862;28;20237;-49
2022/09/07 02:50:14;;;;;;;4.60;4.20;;;;;23.00;98626.00;;;;16393238;28;20225;-49
2022/09/07 02:58:26;;;;;;;6.33;4.33;;;;;24.00;98679.00;;;;16391756;28;20270;-47
2022/09/07 03:06:35;;;;;;;4.47;4.03;;;;;23.50;98682.00;;;;16390562;28;20232;-46
2022/09/07 03:14:40;;;;;;;4.60;3.30;;;;;22.60;98677.00;;;;16390369;28;20741;-49
2022/09/07 03:22:44;;;;;;;4.00;3.43;;;;;21.90;98693.00;;;;16389149;28;20220;-47
2022/09/07 03:30:47;;;;;;;5.90;3.20;;;;;21.70;98680.00;;;;16389708;28;20248;-47
2022/09/07 03:38:51;;;;;;;5.97;4.00;;;;;21.80;98688.00;;;;16393599;28;20232;-46
2022/09/07 03:46:53;;;;;;;4.67;3.60;;;;;22.70;98672.00;;;;16389435;28;20233;-47
2022/09/07 03:54:57;;;;;;;5.10;4.60;;;;;20.80;98684.00;;;;16389575;28;20244;-47
2022/09/07 04:02:59;;;;;;;3.73;3.33;;;;;21.80;98683.00;;;;16423229;28;20225;-47
2022/09/07 04:11:05;;;;;;;7.00;3.60;;;;;20.50;98702.00;;;;16400149;28;20287;-47
2022/09/07 04:19:08;;;;;;;4.57;3.70;;;;;20.50;98700.00;;;;16403318;28;20520;-47
2022/09/07 04:27:12;;;;;;;3.77;3.27;;;;;21.10;98695.00;;;;16403791;28;20228;-47
2022/09/07 04:35:14;;;;;;;7.60;3.83;;;;;20.70;98707.00;;;;16409647;28;20217;-47
2022/09/07 04:43:18;;;;;;;4.87;3.37;;;;;20.80;98700.00;;;;16409066;28;20229;-46
2022/09/07 04:51:23;;;;;;;5.20;4.00;;;;;20.20;98696.00;;;;16394547;28;20229;-46
2022/09/07 04:59:27;;;;;;;7.10;4.40;;;;;21.00;98694.00;;;;16398849;28;20220;-48
2022/09/07 05:07:29;;;;;;;4.40;3.90;;;;;21.60;98702.00;;;;16395637;28;20716;-48
2022/09/07 05:15:33;;;;;;;5.57;4.17;;;;;21.00;98702.00;;;;16400116;28;20236;-48
2022/09/07 05:23:36;;;;;;;6.07;4.00;;;;;20.70;98688.00;;;;16392922;28;20876;-48
2022/09/07 05:31:40;;;;;;;5.57;4.53;;;;;21.00;98689.00;;;;16391612;28;20224;-47
2022/09/07 05:39:42;;;;;;;5.13;4.00;;;;;20.80;98693.00;;;;16389746;28;20694;-48
2022/09/07 05:47:49;;;;;;;5.90;5.40;;;;;21.60;98707.00;;;;16390496;28;20648;-47
2022/09/07 05:55:52;;;;;;;9.17;6.07;;;;;23.10;98695.00;;;;16391144;28;20224;-47
2022/09/07 06:03:56;;;;;;;7.07;4.30;;;;;24.40;98689.00;;;;16393561;28;20221;-47
2022/09/07 06:11:58;;;;;;;7.17;4.77;;;;;24.40;98689.00;;;;16393250;28;20613;-48
2022/09/07 06:20:02;;;;;;;7.63;4.83;;;;;24.10;98700.00;;;;16388148;28;20587;-49
2022/09/07 06:28:05;;;;;;;5.57;4.50;;;;;25.00;98681.00;;;;16380669;28;20229;-49
2022/09/07 06:36:12;;;;;;;8.40;4.57;;;;;24.60;98683.00;;;;16392330;28;20630;-49
2022/09/07 06:44:15;;;;;;;6.43;3.97;;;;;25.00;98681.00;;;;16386895;28;20224;-48
2022/09/07 06:52:19;;;;;;;8.37;4.67;;;;;24.90;98676.00;;;;16389890;28;20205;-49
2022/09/07 07:00:21;;;;;;;8.03;4.07;;;;;25.30;98692.00;;;;16364190;28;20237;-49
2022/09/07 07:08:26;;;;;;;5.23;4.73;;;;;25.00;98683.00;;;;16369888;28;20594;-49
2022/09/07 07:16:28;;;;;;;4.30;3.77;;;;;25.30;98690.00;;;;16382756;28;20701;-47
2022/09/07 07:24:32;;;;;;;5.60;3.77;;;;;25.30;98702.00;;;;16388392;28;20288;-48
2022/09/07 07:32:35;;;;;;;8.17;4.40;;;;;25.50;98704.00;;;;16377915;28;20204;-48
2022/09/07 07:40:39;;;;;;;8.60;4.60;;;;;25.70;98721.00;;;;16384592;28;20244;-48
2022/09/07 07:48:42;;;;;;;10.83;4.83;;;;;25.80;98719.00;;;;16383300;28;20301;-48
2022/09/07 07:56:46;;;;;;;5.80;4.50;;;;;25.70;98733.00;;;;16383235;28;20300;-47
2022/09/07 08:04:48;;;;;;;6.67;3.70;;;;;26.70;98729.00;;;;16391167;28;20662;-47
2022/09/07 08:12:53;;;;;;;6.07;4.90;;;;;27.60;98735.00;;;;16384391;28;20197;-47
2022/09/07 08:21:00;;;;;;;5.70;3.00;;;;;27.10;98737.00;;;;16463911;23;20246;-48
2022/09/07 08:29:04;;;;;;;5.07;3.20;;;;;27.10;98735.00;;;;16565517;28;20325;-48
2022/09/07 08:37:06;;;;;;;6.30;3.10;;;;;27.40;98737.00;;;;16566752;28;20222;-51
2022/09/07 08:45:13;;;;;;;8.17;3.60;;;;;26.80;98742.00;;;;16572100;28;20227;-51
2022/09/07 08:53:18;;;;;;;5.77;2.60;;;;;26.70;98732.00;;;;16570384;28;20722;-51
2022/09/07 09:01:28;;;;;;;4.93;2.90;;;;;27.20;98740.00;;;;16572192;28;20227;-51
2022/09/07 09:09:44;;;;;;;6.30;3.17;;;;;27.40;98730.00;;;;16575629;28;20362;-51
2022/09/07 09:17:55;;;;;;;4.17;3.00;;;;;27.60;98720.00;;;;16573011;28;20786;-51
2022/09/07 09:25:59;;;;;;;4.70;3.43;;;;;28.00;98709.00;;;;16573504;28;20215;-52
2022/09/07 09:34:11;;;;;;;7.10;3.03;;;;;29.40;98703.00;;;;16579897;28;20310;-51
2022/09/07 09:42:17;;;;;;;8.83;4.00;;;;;30.20;98685.00;;;;16588074;28;20323;-51
2022/09/07 09:50:24;;;;;;;6.93;2.97;;;;;31.20;98698.00;;;;16587602;28;20250;-51
2022/09/07 09:58:32;;;;;;;6.13;3.23;;;;;30.30;98689.00;;;;16587977;28;20246;-51
2022/09/07 10:06:35;;;;;;;5.83;2.90;;;;;30.90;98674.00;;;;16586576;28;20572;-52
2022/09/07 10:14:44;;;;;;;4.37;3.13;;;;;31.00;98673.00;;;;16585659;28;20302;-51
2022/09/07 10:22:58;;;;;;;3.67;2.83;;;;;29.60;98669.00;;;;16592325;28;20230;-51
2022/09/07 10:31:07;;;;;;;5.63;3.70;;;;;30.30;98664.00;;;;16585753;28;20303;-52
2022/09/07 10:39:16;;;;;;;6.37;3.20;;;;;29.80;98652.00;;;;16584035;28;20300;-51
2022/09/07 10:47:25;;;;;;;5.73;3.70;;;;;29.40;98644.00;;;;16579138;28;20541;-50
2022/09/07 10:55:32;;;;;;;4.87;3.17;;;;;30.50;98648.00;;;;16580537;28;20223;-50
2022/09/07 11:03:50;;;;;;;7.17;4.00;;;;;29.90;98636.00;;;;16580850;28;20318;-51
2022/09/07 11:11:59;;;;;;;5.73;3.80;;;;;29.30;98631.00;;;;16580566;28;20707;-51
2022/09/07 11:20:08;;;;;;;8.03;3.80;;;;;28.70;98632.00;;;;16582612;28;20282;-50
2022/09/07 11:28:17;;;;;;;7.03;4.30;;;;;28.20;98640.00;;;;16579545;28;20231;-50
2022/09/07 11:36:21;;;;;;;6.20;4.23;;;;;29.20;98630.00;;;;16582356;28;20196;-51
2022/09/07 11:44:29;;;;;;;10.93;3.90;;;;;29.70;98619.00;;;;16581203;28;20242;-51
2022/09/07 11:52:36;;;;;;;5.40;3.03;;;;;31.00;98610.00;;;;16582024;28;20223;-51
2022/09/07 12:00:46;;;;;;;6.70;3.60;;;;;33.70;98593.00;;;;16579758;28;20373;-51
2022/09/07 12:09:01;;;;;;;10.27;3.80;;;;;32.50;98596.00;;;;16580550;28;20768;-50
2022/09/07 12:17:26;;;;;;;6.20;3.23;;;;;33.80;98583.00;;;;16575678;28;20200;-51
2022/09/07 12:25:28;;;;;;;5.23;3.03;;;;;32.60;98574.00;;;;16580149;28;20462;-51
2022/09/07 12:33:34;;;;;;;3.90;2.90;;;;;35.00;98566.00;;;;16588066;28;20775;-51
2022/09/07 12:41:48;;;;;;;6.93;2.70;;;;;34.80;98563.00;;;;16580068;28;20230;-51
2022/09/07 12:50:16;;;;;;;3.30;3.00;;;;;34.10;98565.00;;;;16579236;28;20992;-51
2022/09/07 12:58:29;;;;;;;7.80;3.50;;;;;32.10;98580.00;;;;16585435;28;20219;-51
2022/09/07 13:06:48;;;;;;;7.43;3.00;;;;;30.90;98568.00;;;;16584384;28;20302;-51
2022/09/07 13:14:52;;;;;;;3.40;2.90;;;;;30.30;98559.00;;;;16588088;28;20305;-50
2022/09/07 13:23:18;;;;;;;4.03;1.93;;;;;31.60;98548.00;;;;16583013;28;20226;-51
2022/09/07 13:31:46;;;;;;;4.80;2.40;;;;;33.60;98534.00;;;;16582671;28;20307;-51
2022/09/07 13:39:53;;;;;;;4.80;2.23;;;;;34.20;98518.00;;;;16586141;28;20317;-51
2022/09/07 13:48:01;;;;;;;4.00;2.33;;;;;32.10;98511.00;;;;16584338;28;20297;-51
2022/09/07 13:56:19;;;;;;;8.07;3.00;;;;;32.20;98501.00;;;;16583394;28;20202;-50
2022/09/07 14:04:25;;;;;;;3.60;2.03;;;;;31.60;98498.00;;;;16586173;28;20620;-51
2022/09/07 14:12:31;;;;;;;2.60;2.10;;;;;32.40;98494.00;;;;16580962;28;20215;-51
2022/09/07 14:20:38;;;;;;;4.50;2.93;;;;;32.40;98489.00;;;;16578954;28;20235;-51
2022/09/07 14:28:44;;;;;;;4.03;2.27;;;;;33.20;98483.00;;;;16574966;28;20230;-51
2022/09/07 14:36:47;;;;;;;8.40;2.57;;;;;32.90;98478.00;;;;16581572;28;20199;-51
2022/09/07 14:44:56;;;;;;;3.67;1.90;;;;;33.40;98480.00;;;;16568774;28;20227;-51
2022/09/07 14:52:59;;;;;;;3.97;2.23;;;;;32.60;98480.00;;;;16571345;28;20215;-51
2022/09/07 15:01:18;;;;;;;4.60;2.10;;;;;30.80;98453.00;;;;16570702;28;20222;-51
2022/09/07 15:09:29;;;;;;;3.23;2.20;;;;;31.90;98456.00;;;;16568765;28;20246;-51
2022/09/07 15:17:33;;;;;;;2.07;1.87;;;;;31.10;98455.00;;;;16573790;28;20282;-51
2022/09/07 15:25:36;;;;;;;4.37;2.23;;;;;31.00;98462.00;;;;16566104;28;20250;-50
2022/09/07 15:33:39;;;;;;;2.50;2.17;;;;;30.90;98456.00;;;;16573015;28;20297;-50
2022/09/07 15:41:42;;;;;;;5.13;2.20;;;;;31.20;98457.00;;;;16569704;28;20258;-52
2022/09/07 15:49:46;;;;;;;2.37;1.83;;;;;29.70;98454.00;;;;16565024;28;20361;-50
2022/09/07 15:57:48;;;;;;;5.60;2.60;;;;;29.90;98463.00;;;;16563695;28;20330;-50
2022/09/07 16:05:52;;;;;;;4.70;2.20;;;;;29.80;98446.00;;;;16580746;28;20255;-51
2022/09/07 16:13:59;;;;;;;10.73;7.57;;;;;32.20;98419.00;;;;16582472;28;20306;-51
2022/09/07 16:22:03;;;;;;;3.90;2.83;;;;;30.30;98415.00;;;;16583676;28;20801;-51
2022/09/07 16:30:06;;;;;;;4.17;3.33;;;;;29.30;98423.00;;;;16581732;28;20223;-51
2022/09/07 16:38:10;;;;;;;2.63;2.33;;;;;29.00;98420.00;;;;16580957;28;20244;-52
2022/09/07 16:46:14;;;;;;;2.80;2.00;;;;;28.50;98427.00;;;;16577721;28;20231;-51
2022/09/07 16:54:18;;;;;;;3.30;2.80;;;;;28.20;98431.00;;;;16560441;28;20730;-50
2022/09/07 17:02:20;;;;;;;4.17;2.60;;;;;28.20;98433.00;;;;16569320;28;20696;-50
2022/09/07 17:10:25;;;;;;;4.33;2.20;;;;;27.80;98437.00;;;;16574241;28;20231;-51
2022/09/07 17:18:27;;;;;;;4.30;2.83;;;;;27.60;98429.00;;;;16577693;28;20630;-51
2022/09/07 17:26:31;;;;;;;4.87;3.13;;;;;27.40;98423.00;;;;16574992;28;20230;-49
2022/09/07 17:34:34;;;;;;;4.20;3.03;;;;;27.20;98428.00;;;;16577751;28;20306;-50
2022/09/07 17:42:39;;;;;;;4.07;2.90;;;;;27.20;98442.00;;;;16578511;28;20227;-50
2022/09/07 17:50:42;;;;;;;7.03;2.70;;;;;26.80;98467.00;;;;16576676;28;20341;-50
2022/09/07 17:58:46;;;;;;;4.83;2.93;;;;;27.00;98459.00;;;;16581116;28;20211;-50
2022/09/07 18:06:48;;;;;;;4.97;2.70;;;;;26.70;98454.00;;;;16582130;28;20215;-50
2022/09/07 18:14:52;;;;;;;7.70;3.00;;;;;26.20;98497.00;;;;16574696;28;20294;-51
2022/09/07 18:22:54;;;;;;;3.83;2.90;;;;;26.00;98485.00;;;;16557298;28;20281;-51
2022/09/07 18:31:04;;;;;;;4.07;3.37;;;;;26.80;98446.00;;;;16570296;28;20847;-51
2022/09/07 18:39:06;;;;;;;3.43;2.80;;;;;25.70;98443.00;;;;16561550;28;20219;-52
2022/09/07 18:47:10;;;;;;;3.80;2.47;;;;;24.60;98467.00;;;;16578186;28;20238;-52
2022/09/07 18:55:13;;;;;;;5.00;3.27;;;;;24.60;98497.00;;;;16576868;28;20731;-51
2022/09/07 19:03:16;;;;;;;2.70;2.10;;;;;24.40;98500.00;;;;16572577;28;20305;-52
2022/09/07 19:11:20;;;;;;;3.93;2.30;;;;;25.00;98483.00;;;;16577766;28;20243;-51
2022/09/07 19:19:25;;;;;;;3.43;2.93;;;;;24.90;98481.00;;;;16578954;28;20246;-52
2022/09/07 19:27:28;;;;;;;2.97;2.67;;;;;24.60;98496.00;;;;16568010;28;20824;-51
2022/09/07 19:35:35;;;;;;;3.33;2.50;;;;;24.70;98508.00;;;;16578005;28;20221;-51
2022/09/07 19:43:38;;;;;;;3.57;2.73;;;;;25.10;98492.00;;;;16570372;28;20226;-56
2022/09/07 19:51:42;;;;;;;2.50;2.30;;;;;26.60;98476.00;;;;16576665;28;20718;-52
2022/09/07 19:59:46;;;;;;;3.67;2.33;;;;;24.90;98481.00;;;;16572715;28;20673;-52
2022/09/07 20:07:49;;;;;;;3.43;2.50;;;;;25.00;98466.00;;;;16573405;28;20462;-51
2022/09/07 20:15:52;;;;;;;3.00;2.40;;;;;24.20;98459.00;;;;16572973;28;20207;-52
2022/09/07 20:23:56;;;;;;;3.10;2.57;;;;;22.80;98437.00;;;;16567720;28;20358;-51
2022/09/07 20:31:59;;;;;;;2.53;2.33;;;;;22.50;98439.00;;;;16571555;28;20223;-51
2022/09/07 20:40:05;;;;;;;2.70;2.17;;;;;21.90;98430.00;;;;16571347;28;20740;-51
2022/09/07 20:48:07;;;;;;;4.53;2.60;;;;;22.30;98410.00;;;;16579702;28;20253;-52
2022/09/07 20:56:13;;;;;;;2.70;2.50;;;;;21.90;98405.00;;;;16587759;28;20192;-51
2022/09/07 21:04:16;;;;;;;6.47;2.90;;;;;21.60;98410.00;;;;16571656;28;20319;-51
2022/09/07 21:12:20;;;;;;;3.10;2.70;;;;;22.10;98425.00;;;;16574955;28;20234;-51
2022/09/07 21:20:22;;;;;;;2.20;2.10;;;;;21.90;98433.00;;;;16534339;28;1125918;-51
2022/09/07 21:28:26;;;;;;;3.90;2.13;;;;;22.20;98431.00;;;;16574748;28;20763;-51
2022/09/07 21:36:29;;;;;;;2.43;2.23;;;;;21.50;98427.00;;;;16588139;28;20286;-52
2022/09/07 21:44:33;;;;;;;4.77;2.87;;;;;21.60;98436.00;;;;16588719;28;20342;-51
2022/09/07 21:52:37;;;;;;;2.30;2.10;;;;;22.60;98437.00;;;;16589310;28;20225;-52
2022/09/07 22:00:41;;;;;;;2.90;2.60;;;;;22.40;98432.00;;;;16587388;28;20238;-52
2022/09/07 22:08:43;;;;;;;2.60;2.37;;;;;21.80;98418.00;;;;16588452;28;20607;-51
2022/09/07 22:16:47;;;;;;;4.23;2.80;;;;;21.90;98402.00;;;;16588149;28;20254;-51
2022/09/07 22:24:49;;;;;;;4.90;4.50;;;;;22.80;98388.00;;;;16586767;28;20770;-52
2022/09/07 22:32:54;;;;;;;5.33;4.00;;;;;24.10;98371.00;;;;16585287;28;20237;-51
2022/09/07 22:40:56;;;;;;;6.90;5.63;;;;;23.60;98347.00;;;;16585631;28;20317;-52
2022/09/07 22:49:00;;;;;;;5.90;4.27;;;;;23.50;98326.00;;;;16580893;28;20227;-51
2022/09/07 22:57:02;;;;;;;10.77;3.67;;;;;24.80;98325.00;;;;16579393;28;20287;-52
2022/09/07 23:05:07;;;;;;;3.57;3.27;;;;;22.80;98329.00;;;;16579020;28;20333;-53
2022/09/07 23:13:14;;;;;;;4.03;3.63;;;;;24.00;98335.00;;;;16583850;28;20231;-51
2022/09/07 23:21:18;;;;;;;3.90;3.60;;;;;24.40;98327.00;;;;16580171;28;20261;-51
2022/09/07 23:29:21;;;;;;;5.10;3.53;;;;;23.90;98309.00;;;;16577313;28;20700;-52
2022/09/07 23:37:25;;;;;;;6.20;4.10;;;;;24.20;98292.00;;;;16577137;28;20214;-52
2022/09/07 23:45:28;;;;;;;6.60;4.90;;;;;24.60;98270.00;;;;16581829;28;20310;-52
2022/09/07 23:53:31;;;;;;;6.50;5.40;;;;;24.00;98287.00;;;;16581763;28;20797;-51
